Time;durP1;ratioP1;P1;durP2;ratioP2;P2;SDS_P1;SDS_P2;PMS_P1;PMS_P2;Temp;Humidity;BMP_temperature;BMP_pressure;BME280_temperature;BME280_humidity;BME280_pressure;Samples;Min_cycle;Max_cycle;Signal;HPM_P1;HPM_P2
2021/12/15 00:01:40;;;;;;;24.93;12.77;;;;;;;1.05;100.00;95086.47;5015190;28;20293;-65
2021/12/15 00:04:06;;;;;;;25.50;13.80;;;;;;;1.17;100.00;95085.97;5014909;28;20189;-65
2021/12/15 00:06:32;;;;;;;24.83;13.70;;;;;;;1.18;100.00;95085.13;5013782;28;20214;-61
2021/12/15 00:09:00;;;;;;;21.93;12.73;;;;;;;1.32;100.00;95087.84;5015035;28;20203;-66
2021/12/15 00:11:32;;;;;;;23.43;12.50;;;;;;;1.25;100.00;95098.19;5013482;28;20203;-64
2021/12/15 00:13:59;;;;;;;25.77;13.03;;;;;;;1.18;100.00;95092.63;5014941;28;20561;-64
2021/12/15 00:16:25;;;;;;;27.77;13.70;;;;;;;1.18;100.00;95091.81;5013470;28;20288;-65
2021/12/15 00:18:51;;;;;;;24.03;12.53;;;;;;;1.17;100.00;95100.19;5013612;28;20179;-64
2021/12/15 00:21:19;;;;;;;25.57;13.10;;;;;;;1.09;100.00;95097.22;5014972;28;20218;-65
2021/12/15 00:23:45;;;;;;;24.33;12.47;;;;;;;1.07;100.00;95101.47;5014512;28;20256;-64
2021/12/15 00:26:12;;;;;;;24.47;12.80;;;;;;;1.14;100.00;95098.63;5014732;28;20775;-67
2021/12/15 00:28:39;;;;;;;22.10;11.97;;;;;;;1.20;100.00;95105.06;5014396;28;20207;-65
2021/12/15 00:31:05;;;;;;;25.63;13.33;;;;;;;1.08;100.00;95093.06;5014311;28;20238;-65
2021/12/15 00:33:33;;;;;;;26.10;12.97;;;;;;;1.15;100.00;95115.25;5013288;28;20195;-64
2021/12/15 00:35:59;;;;;;;26.47;12.63;;;;;;;1.23;100.00;95108.25;5014344;28;20191;-65
2021/12/15 00:38:25;;;;;;;20.70;12.83;;;;;;;1.14;100.00;95108.66;5024588;22;20221;-61
2021/12/15 00:40:51;;;;;;;26.60;13.37;;;;;;;1.12;100.00;95107.91;5033285;28;20218;-65
2021/12/15 00:43:18;;;;;;;24.03;13.83;;;;;;;1.09;100.00;95098.00;5034139;28;20182;-65
2021/12/15 00:45:44;;;;;;;26.97;13.03;;;;;;;1.07;100.00;95102.25;5033875;28;20276;-64
2021/12/15 00:48:10;;;;;;;23.40;12.83;;;;;;;0.99;100.00;95095.97;5033774;28;20206;-66
2021/12/15 00:50:36;;;;;;;24.93;12.30;;;;;;;0.99;100.00;95095.97;5033856;28;20289;-62
2021/12/15 00:53:03;;;;;;;22.07;12.23;;;;;;;0.99;100.00;95095.97;5032772;28;20671;-60
2021/12/15 00:55:30;;;;;;;24.47;11.77;;;;;;;0.96;100.00;95096.88;5033825;28;20178;-61
2021/12/15 00:57:56;;;;;;;20.90;11.50;;;;;;;0.94;100.00;95087.81;5033719;28;20174;-64
2021/12/15 01:00:30;;;;;;;21.13;11.57;;;;;;;0.98;100.00;95084.31;5034104;28;20221;-65
2021/12/15 01:02:56;;;;;;;19.83;11.60;;;;;;;1.01;100.00;95084.97;5034106;28;20175;-66
2021/12/15 01:05:29;;;;;;;21.70;11.33;;;;;;;1.04;100.00;95087.38;5034174;28;20655;-64
2021/12/15 01:07:55;;;;;;;22.80;11.47;;;;;;;1.04;100.00;95086.56;5033702;28;20201;-66
2021/12/15 01:10:29;;;;;;;19.73;10.50;;;;;;;1.01;100.00;95079.97;5033935;28;20558;-64
2021/12/15 01:21:11;;;;;;;18.10;9.83;;;;;;;1.09;100.00;95085.47;5033300;28;20274;-64
2021/12/15 01:23:37;;;;;;;19.03;10.23;;;;;;;1.07;100.00;95089.72;5031830;28;20190;-65
2021/12/15 01:26:08;;;;;;;19.17;10.20;;;;;;;1.05;100.00;95085.69;5033062;28;20344;-65
2021/12/15 01:28:34;;;;;;;24.37;11.40;;;;;;;1.01;100.00;95079.19;5033292;28;20217;-67
2021/12/15 01:31:01;;;;;;;20.67;11.27;;;;;;;1.15;100.00;95090.22;5021074;23;20320;-65
2021/12/15 01:33:28;;;;;;;22.37;11.07;;;;;;;1.17;100.00;95088.47;5013556;28;20244;-64
2021/12/15 01:35:56;;;;;;;18.10;9.70;;;;;;;1.12;100.00;95087.88;5013209;28;20710;-65
2021/12/15 01:38:25;;;;;;;17.50;9.77;;;;;;;1.13;100.00;95088.69;5013190;28;20183;-63
2021/12/15 01:40:50;;;;;;;22.40;11.03;;;;;;;1.07;100.00;95089.72;5013106;28;20202;-64
2021/12/15 01:43:25;;;;;;;20.27;10.93;;;;;;;1.02;100.00;95084.13;5013157;28;20321;-66
2021/12/15 01:48:55;;;;;;;17.50;10.03;;;;;;;1.00;100.00;95083.38;5012101;28;20273;-64
2021/12/15 01:51:21;;;;;;;19.43;10.80;;;;;;;1.00;100.00;95078.38;5013119;28;20273;-65
2021/12/15 01:53:46;;;;;;;16.77;8.87;;;;;;;1.05;100.00;95086.47;5013242;28;20221;-62
2021/12/15 01:56:12;;;;;;;21.77;10.63;;;;;;;0.95;100.00;95079.44;5011621;28;20281;-61
2021/12/15 01:58:37;;;;;;;17.93;10.23;;;;;;;1.03;100.00;95082.44;5013170;28;20190;-64
2021/12/15 02:01:07;;;;;;;20.23;10.63;;;;;;;1.09;100.00;95085.47;5012823;28;20203;-64
2021/12/15 02:03:33;;;;;;;18.77;10.73;;;;;;;1.13;100.00;95081.97;5012963;28;20612;-67
2021/12/15 02:05:58;;;;;;;19.60;10.07;;;;;;;1.14;100.00;95077.78;5012631;28;20283;-66
2021/12/15 02:08:25;;;;;;;18.40;10.83;;;;;;;1.12;100.00;95084.53;5023009;22;20283;-64
2021/12/15 02:10:51;;;;;;;20.17;10.80;;;;;;;1.08;100.00;95081.38;5032395;28;20707;-63
2021/12/15 02:13:19;;;;;;;20.60;10.37;;;;;;;1.16;100.00;95089.38;5032243;28;20220;-62
2021/12/15 02:15:49;;;;;;;18.00;9.93;;;;;;;1.14;100.00;95090.31;5032178;28;20202;-61
2021/12/15 02:18:18;;;;;;;19.87;10.23;;;;;;;1.13;100.00;95088.69;5032790;28;20625;-60
2021/12/15 02:20:48;;;;;;;19.37;11.03;;;;;;;1.07;100.00;95074.72;5032343;28;20274;-65
2021/12/15 02:23:18;;;;;;;18.80;10.10;;;;;;;1.01;100.00;95074.19;5032274;28;20183;-66
2021/12/15 02:25:44;;;;;;;20.30;11.93;;;;;;;0.97;100.00;95078.47;5030974;28;20217;-61
2021/12/15 02:28:10;;;;;;;19.77;10.37;;;;;;;0.85;100.00;95073.97;5032136;28;20714;-66
2021/12/15 02:31:34;;;;;;;19.13;10.30;;;;;;;0.84;100.00;95078.19;5030768;28;20206;-64
2021/12/15 02:38:54;;;;;;;21.03;11.37;;;;;;;0.79;100.00;95077.53;5032346;28;20269;-62
2021/12/15 02:41:20;;;;;;;22.73;11.30;;;;;;;0.83;100.00;95078.22;5032395;28;20293;-61
2021/12/15 02:43:51;;;;;;;19.20;10.63;;;;;;;0.72;100.00;95078.69;5032159;28;20185;-65
2021/12/15 02:46:17;;;;;;;23.43;10.77;;;;;;;0.78;100.00;95087.63;5032390;28;20288;-64
2021/12/15 02:48:42;;;;;;;20.67;10.90;;;;;;;0.76;100.00;95087.69;5030518;28;20359;-64
2021/12/15 02:51:09;;;;;;;19.57;10.60;;;;;;;0.63;100.00;95085.72;5032545;28;20208;-66
2021/12/15 02:53:34;;;;;;;21.73;10.97;;;;;;;0.62;100.00;95081.59;5030696;28;20255;-66
2021/12/15 02:56:00;;;;;;;19.00;10.70;;;;;;;0.57;100.00;95083.44;5032309;28;20237;-61
2021/12/15 02:58:32;;;;;;;20.33;9.77;;;;;;;0.53;100.00;95084.44;5031846;28;20181;-62
2021/12/15 03:01:04;;;;;;;19.87;9.83;;;;;;;0.47;100.00;95082.19;5030556;28;20240;-64
2021/12/15 03:06:32;;;;;;;17.57;9.63;;;;;;;0.60;100.00;95095.84;5032222;28;20726;-63
2021/12/15 03:08:56;;;;;;;17.73;9.07;;;;;;;0.62;100.00;95096.59;5031363;28;20223;-61
2021/12/15 03:16:54;;;;;;;22.80;11.07;;;;;;;0.56;100.00;95099.34;5031729;28;20729;-66
2021/12/15 03:19:19;;;;;;;16.30;9.63;;;;;;;0.55;100.00;95106.03;5030297;28;20280;-64
2021/12/15 03:21:45;;;;;;;18.57;9.00;;;;;;;0.56;100.00;95107.66;5031562;28;20277;-65
2021/12/15 03:24:17;;;;;;;16.93;8.43;;;;;;;0.57;100.00;95105.97;5031497;28;20286;-61
2021/12/15 03:26:52;;;;;;;16.83;8.77;;;;;;;0.63;100.00;95098.22;5031673;28;20238;-65
2021/12/15 03:35:17;;;;;;;14.40;8.13;;;;;;;0.60;100.00;95110.84;5031618;28;20647;-65
2021/12/15 03:37:48;;;;;;;15.87;8.10;;;;;;;0.60;100.00;95110.84;5031597;28;20162;-63
2021/12/15 03:40:19;;;;;;;18.33;8.63;;;;;;;0.63;100.00;95108.22;5030424;28;20659;-64
2021/12/15 03:42:46;;;;;;;18.03;8.83;;;;;;;0.70;100.00;95104.63;5031560;28;20535;-62
2021/12/15 03:45:25;;;;;;;14.17;7.50;;;;;;;0.68;100.00;95106.38;5032039;28;20190;-64
2021/12/15 03:47:51;;;;;;;14.40;8.27;;;;;;;0.72;100.00;95108.69;5035045;28;20616;-61
2021/12/15 03:50:23;;;;;;;15.50;8.40;;;;;;;0.69;100.00;95107.97;5033875;28;20186;-65
2021/12/15 03:52:49;;;;;;;14.70;8.90;;;;;;;0.57;100.00;95103.47;5033728;28;20189;-65
2021/12/15 03:55:17;;;;;;;12.60;7.70;;;;;;;0.60;100.00;95103.34;5035143;28;20195;-65
2021/12/15 03:57:43;;;;;;;15.47;8.17;;;;;;;0.67;100.00;95112.22;5034982;28;20186;-63
2021/12/15 04:00:11;;;;;;;16.63;8.47;;;;;;;0.62;100.00;95117.44;5035031;28;20216;-67
2021/12/15 04:02:37;;;;;;;14.43;8.23;;;;;;;0.62;100.00;95121.63;5034629;28;20276;-66
2021/12/15 04:05:04;;;;;;;13.47;7.47;;;;;;;0.64;100.00;95132.38;5033573;28;20286;-60
2021/12/15 04:07:30;;;;;;;11.43;6.40;;;;;;;0.59;100.00;95129.22;5034510;28;20222;-64
2021/12/15 04:09:55;;;;;;;13.13;7.47;;;;;;;0.57;100.00;95143.47;5034953;28;20189;-65
2021/12/15 04:12:22;;;;;;;14.13;7.33;;;;;;;0.45;100.00;95143.94;5034587;28;20205;-65
2021/12/15 04:14:55;;;;;;;14.37;8.20;;;;;;;0.45;100.00;95138.94;5034788;28;20639;-60
2021/12/15 04:17:32;;;;;;;15.80;7.70;;;;;;;0.41;100.00;95152.44;5034472;28;20201;-62
2021/12/15 04:20:12;;;;;;;14.33;7.57;;;;;;;0.46;100.00;95141.41;5034649;28;20194;-65
2021/12/15 04:22:38;;;;;;;14.83;7.60;;;;;;;0.46;100.00;95143.91;5034461;28;20204;-65
2021/12/15 04:25:10;;;;;;;19.37;7.87;;;;;;;0.40;100.00;95143.31;5034370;28;20231;-65
2021/12/15 04:27:36;;;;;;;14.50;8.00;;;;;;;0.44;100.00;95143.16;5032986;28;20296;-65
2021/12/15 04:30:05;;;;;;;16.37;8.40;;;;;;;0.44;100.00;95150.66;5034712;28;20196;-64
2021/12/15 04:32:43;;;;;;;16.90;8.87;;;;;;;0.41;100.00;95144.94;5032802;28;20584;-64
2021/12/15 04:35:10;;;;;;;15.77;8.77;;;;;;;0.34;100.00;95146.88;5033961;28;20679;-64
2021/12/15 04:37:36;;;;;;;18.07;8.50;;;;;;;0.31;100.00;95139.47;5032811;28;20237;-63
2021/12/15 04:40:05;;;;;;;15.80;8.17;;;;;;;0.44;100.00;95145.66;5034412;28;20189;-64
2021/12/15 04:42:31;;;;;;;13.93;8.50;;;;;;;0.38;100.00;95142.56;5034002;28;20717;-64
2021/12/15 04:44:57;;;;;;;15.57;8.90;;;;;;;0.36;100.00;95146.81;5034011;28;20198;-62
2021/12/15 04:47:24;;;;;;;12.27;8.10;;;;;;;0.36;100.00;95150.13;5033623;28;20209;-62
2021/12/15 04:49:54;;;;;;;15.73;9.03;;;;;;;0.34;100.00;95136.88;5034015;28;20295;-65
2021/12/15 04:52:23;;;;;;;16.03;9.03;;;;;;;0.34;100.00;95143.53;5034011;28;20628;-67
2021/12/15 04:54:49;;;;;;;15.97;8.53;;;;;;;0.32;100.00;95137.78;5032491;28;20335;-65
2021/12/15 04:57:19;;;;;;;14.67;7.77;;;;;;;0.26;100.00;95135.53;5031559;28;20236;-66
2021/12/15 04:59:45;;;;;;;15.40;8.70;;;;;;;0.44;100.00;95149.81;5033894;28;20667;-61
2021/12/15 05:02:14;;;;;;;14.47;7.70;;;;;;;0.49;100.00;95145.44;5033693;28;20209;-68
2021/12/15 05:04:40;;;;;;;13.80;7.47;;;;;;;0.46;100.00;95145.59;5033809;28;20194;-66
2021/12/15 05:07:06;;;;;;;13.43;7.77;;;;;;;0.50;100.00;95145.41;5033532;28;20218;-66
2021/12/15 05:09:32;;;;;;;18.83;9.30;;;;;;;0.44;100.00;95157.31;5033617;28;20214;-65
2021/12/15 05:11:57;;;;;;;17.33;8.70;;;;;;;0.34;100.00;95151.03;5033210;28;20421;-62
2021/12/15 05:14:24;;;;;;;17.87;8.83;;;;;;;0.44;100.00;95154.81;5033343;28;20189;-64
2021/12/15 05:16:51;;;;;;;21.90;9.33;;;;;;;0.49;100.00;95160.44;5033469;28;20686;-66
2021/12/15 05:19:18;;;;;;;13.97;8.33;;;;;;;0.36;100.00;95160.13;5033274;28;20181;-62
2021/12/15 05:21:44;;;;;;;15.03;8.63;;;;;;;0.29;100.00;95162.88;5033195;28;20205;-67
2021/12/15 05:24:25;;;;;;;17.37;10.23;;;;;;;0.31;100.00;95158.66;5033136;28;20181;-62
2021/12/15 05:26:51;;;;;;;17.57;9.83;;;;;;;0.36;100.00;95155.13;5032172;28;20208;-66
2021/12/15 05:29:16;;;;;;;17.47;9.80;;;;;;;0.34;100.00;95156.03;5032721;28;20206;-66
2021/12/15 05:31:42;;;;;;;15.27;8.30;;;;;;;0.33;100.00;95161.91;5032987;28;20276;-65
2021/12/15 05:34:07;;;;;;;15.97;9.27;;;;;;;0.39;100.00;95165.00;5032813;28;20197;-66
2021/12/15 05:36:33;;;;;;;17.30;10.10;;;;;;;0.30;100.00;95162.84;5032885;28;20206;-66
2021/12/15 05:38:58;;;;;;;15.30;8.53;;;;;;;0.42;100.00;95174.06;5032903;28;20185;-67
2021/12/15 05:41:24;;;;;;;14.53;8.40;;;;;;;0.42;100.00;95171.56;5032894;28;20205;-66
2021/12/15 05:43:50;;;;;;;16.47;9.40;;;;;;;0.44;100.00;95178.16;5032841;28;20190;-65
2021/12/15 05:46:15;;;;;;;17.47;7.97;;;;;;;0.40;100.00;95181.63;5032839;28;20511;-65
2021/12/15 05:48:41;;;;;;;14.97;8.73;;;;;;;1.47;100.00;95154.84;5032652;28;20689;-65
2021/12/15 05:51:07;;;;;;;16.33;9.50;;;;;;;0.81;100.00;95192.56;5033584;28;20212;-66
2021/12/15 05:53:32;;;;;;;19.77;9.83;;;;;;;0.74;100.00;95177.00;5032635;28;20304;-66
2021/12/15 05:55:58;;;;;;;14.50;8.60;;;;;;;0.61;100.00;95180.00;5032906;28;20284;-66
2021/12/15 05:58:24;;;;;;;16.23;8.93;;;;;;;0.52;100.00;95172.84;5032725;28;20169;-67
2021/12/15 06:00:49;;;;;;;15.03;8.00;;;;;;;0.44;100.00;95177.34;5032463;28;20710;-66
2021/12/15 06:03:16;;;;;;;16.13;8.70;;;;;;;0.46;100.00;95175.59;5032515;28;20208;-65
2021/12/15 06:05:42;;;;;;;17.40;9.70;;;;;;;0.56;100.00;95176.88;5032688;28;20210;-64
2021/12/15 06:08:08;;;;;;;14.47;9.50;;;;;;;0.50;100.00;95187.94;5032346;28;20205;-66
2021/12/15 06:10:37;;;;;;;15.73;8.77;;;;;;;0.46;100.00;95171.41;5032669;28;20196;-65
2021/12/15 06:13:08;;;;;;;21.77;10.63;;;;;;;0.46;100.00;95176.41;5032339;28;20178;-67
2021/12/15 06:15:36;;;;;;;20.80;10.57;;;;;;;0.53;100.00;95175.28;5032774;28;20193;-65
2021/12/15 06:18:07;;;;;;;17.60;9.73;;;;;;;0.50;100.00;95175.41;5032309;28;20189;-66
2021/12/15 06:20:34;;;;;;;15.97;9.23;;;;;;;0.50;100.00;95185.44;5031070;28;20714;-69
2021/12/15 06:23:01;;;;;;;16.27;9.60;;;;;;;0.50;100.00;95192.09;5031048;28;20627;-63
2021/12/15 06:25:28;;;;;;;22.27;11.03;;;;;;;0.52;100.00;95181.19;5032404;28;20706;-65
2021/12/15 06:27:54;;;;;;;22.53;10.70;;;;;;;0.53;100.00;95176.97;5032000;28;20288;-66
2021/12/15 06:30:19;;;;;;;19.50;10.40;;;;;;;0.54;100.00;95181.13;5031911;28;20712;-65
2021/12/15 06:32:45;;;;;;;20.90;11.07;;;;;;;0.54;100.00;95173.63;5031993;28;20192;-64
2021/12/15 06:35:11;;;;;;;18.90;10.20;;;;;;;0.64;100.00;95179.91;5020012;23;20230;-63
2021/12/15 06:37:36;;;;;;;19.07;9.73;;;;;;;0.66;100.00;95173.97;5012107;28;20229;-63
2021/12/15 06:40:07;;;;;;;16.73;8.67;;;;;;;0.66;100.00;95183.16;5012692;28;20210;-64
2021/12/15 06:42:34;;;;;;;18.67;10.20;;;;;;;0.77;100.00;95183.53;5012197;28;20238;-64
2021/12/15 06:45:00;;;;;;;17.80;9.07;;;;;;;0.61;100.00;95190.00;5012811;28;20194;-64
2021/12/15 06:57:15;;;;;;;16.97;9.33;;;;;;;0.70;100.00;95194.66;5011925;28;20213;-64
2021/12/15 06:58:32;;;;;;;13.20;7.93;;;;;;;0.54;100.00;95213.63;5012038;28;20209;-61
2021/12/15 07:01:01;;;;;;;15.33;7.67;;;;;;;0.31;100.00;95176.97;5011889;28;20587;-63
2021/12/15 07:03:26;;;;;;;14.30;8.17;;;;;;;0.48;100.00;95192.16;5012014;28;20183;-63
2021/12/15 07:05:55;;;;;;;14.40;7.87;;;;;;;0.52;100.00;95201.19;5011806;28;20592;-63
2021/12/15 07:08:22;;;;;;;15.60;8.93;;;;;;;0.63;100.00;95194.09;5011931;28;20223;-67
2021/12/15 07:10:50;;;;;;;19.00;8.87;;;;;;;0.56;100.00;95196.88;5011833;28;20197;-65
2021/12/15 07:13:17;;;;;;;12.53;9.10;;;;;;;0.60;100.00;95210.91;5011816;28;20182;-63
2021/12/15 07:15:59;;;;;;;15.23;8.50;;;;;;;0.49;100.00;95206.28;5012175;28;20253;-65
2021/12/15 07:18:27;;;;;;;17.93;8.90;;;;;;;0.53;100.00;95207.81;5011859;28;20243;-64
2021/12/15 07:20:54;;;;;;;14.20;8.53;;;;;;;0.62;100.00;95209.16;5011899;28;20232;-64
2021/12/15 07:23:22;;;;;;;15.87;8.13;;;;;;;0.69;100.00;95210.53;5015610;28;20265;-64
2021/12/15 07:25:50;;;;;;;15.27;8.90;;;;;;;0.73;100.00;95212.06;5015507;28;20237;-65
2021/12/15 07:28:18;;;;;;;15.70;8.23;;;;;;;0.69;100.00;95216.34;5015477;28;20210;-66
2021/12/15 07:30:44;;;;;;;14.80;8.10;;;;;;;0.72;100.00;95215.44;5015415;28;20217;-66
2021/12/15 07:33:11;;;;;;;17.13;8.97;;;;;;;0.74;100.00;95217.00;5015180;28;20197;-66
2021/12/15 07:35:37;;;;;;;14.23;8.13;;;;;;;0.68;100.00;95226.44;5014076;28;20218;-67
2021/12/15 07:38:04;;;;;;;14.63;8.03;;;;;;;0.70;100.00;95214.69;5015254;28;20190;-66
2021/12/15 07:40:30;;;;;;;13.87;7.50;;;;;;;0.71;100.00;95224.63;5015088;28;20198;-66
2021/12/15 07:43:07;;;;;;;15.27;8.70;;;;;;;0.68;100.00;95231.44;5013950;28;20192;-67
2021/12/15 07:45:36;;;;;;;15.50;8.63;;;;;;;0.73;100.00;95232.88;5013851;28;20281;-66
2021/12/15 07:48:04;;;;;;;14.10;8.17;;;;;;;0.65;100.00;95232.34;5024765;22;20264;-66
2021/12/15 07:50:31;;;;;;;16.87;9.60;;;;;;;0.63;100.00;95225.78;5042709;22;20312;-65
2021/12/15 07:52:57;;;;;;;15.47;8.40;;;;;;;0.61;100.00;95222.50;5034881;28;20250;-65
2021/12/15 07:55:25;;;;;;;15.27;8.73;;;;;;;0.66;100.00;95230.69;5034916;28;20247;-66
2021/12/15 07:58:00;;;;;;;15.57;8.50;;;;;;;0.63;100.00;95229.09;5034693;28;20186;-67
2021/12/15 08:00:32;;;;;;;15.10;8.50;;;;;;;0.65;100.00;95239.03;5033827;28;20207;-66
2021/12/15 08:02:58;;;;;;;14.77;8.70;;;;;;;0.68;100.00;95233.94;5034580;28;20693;-66
2021/12/15 08:05:25;;;;;;;16.07;7.37;;;;;;;0.70;100.00;95245.53;5034747;28;20194;-68
2021/12/15 08:10:35;;;;;;;13.17;7.33;;;;;;;0.61;100.00;95238.34;5034328;28;20273;-65
2021/12/15 08:13:01;;;;;;;15.30;7.67;;;;;;;0.62;100.00;95251.66;5034489;28;20254;-64
2021/12/15 08:15:27;;;;;;;11.80;6.97;;;;;;;0.65;100.00;95251.53;5033211;28;20190;-66
2021/12/15 08:17:53;;;;;;;14.27;7.43;;;;;;;3.55;100.00;95242.41;5034424;28;20243;-63
2021/12/15 08:20:26;;;;;;;18.10;9.13;;;;;;;1.97;100.00;95277.19;5034484;28;20250;-67
2021/12/15 08:22:52;;;;;;;11.80;7.87;;;;;;;1.32;100.00;95279.84;5034287;28;20668;-65
2021/12/15 08:25:19;;;;;;;10.97;6.90;;;;;;;1.16;100.00;95292.16;5034490;28;20183;-64
2021/12/15 08:27:46;;;;;;;8.77;5.80;;;;;;;0.92;100.00;95258.03;5034067;28;20585;-65
2021/12/15 08:30:20;;;;;;;12.00;6.10;;;;;;;0.74;100.00;95264.56;5034577;28;20273;-66
2021/12/15 08:32:51;;;;;;;10.27;6.57;;;;;;;0.53;100.00;95262.00;5031813;28;20572;-68
2021/12/15 08:35:20;;;;;;;13.23;6.67;;;;;;;0.54;100.00;95256.13;5034207;28;20227;-64
2021/12/15 08:37:46;;;;;;;12.83;6.13;;;;;;;0.56;100.00;95261.91;5041323;22;20762;-65
2021/12/15 08:40:13;;;;;;;13.00;7.77;;;;;;;0.47;100.00;95270.53;5033880;28;20268;-64
2021/12/15 08:42:38;;;;;;;15.07;7.47;;;;;;;0.55;100.00;95272.75;5033887;28;20194;-64
2021/12/15 08:45:05;;;;;;;13.30;7.87;;;;;;;0.60;100.00;95274.25;5034081;28;20635;-65
2021/12/15 08:47:31;;;;;;;14.80;7.93;;;;;;;0.56;100.00;95281.91;5033607;28;20225;-66
2021/12/15 08:49:57;;;;;;;11.20;6.53;;;;;;;0.64;100.00;95279.94;5032546;28;20652;-63
2021/12/15 08:52:23;;;;;;;13.97;7.43;;;;;;;0.59;100.00;95281.78;5032409;28;20589;-66
2021/12/15 08:54:48;;;;;;;11.00;6.57;;;;;;;0.61;100.00;95282.53;5033730;28;20678;-66
2021/12/15 08:57:14;;;;;;;14.30;6.10;;;;;;;0.67;100.00;95277.31;5032802;28;20216;-65
2021/12/15 08:59:40;;;;;;;9.83;6.37;;;;;;;0.71;100.00;95282.16;5032257;28;20192;-64
2021/12/15 09:02:05;;;;;;;10.67;6.27;;;;;;;0.71;100.00;95281.34;5034047;28;20210;-64
2021/12/15 09:04:31;;;;;;;13.80;7.20;;;;;;;0.75;100.00;95286.19;5033600;28;20645;-64
2021/12/15 09:06:57;;;;;;;11.23;6.03;;;;;;;0.75;100.00;95283.69;5032182;28;20213;-65
2021/12/15 09:09:22;;;;;;;9.40;5.77;;;;;;;0.77;100.00;95286.94;5033300;28;20210;-64
2021/12/15 09:11:50;;;;;;;12.40;7.23;;;;;;;0.68;100.00;95309.81;5032305;28;20662;-64
2021/12/15 09:14:16;;;;;;;11.73;6.17;;;;;;;0.66;100.00;95290.72;5031940;28;20244;-66
2021/12/15 09:16:45;;;;;;;8.03;5.13;;;;;;;0.65;100.00;95277.38;5032282;28;20210;-64
2021/12/15 09:19:10;;;;;;;11.07;6.23;;;;;;;0.63;100.00;95284.13;5031963;28;20236;-67
2021/12/15 09:21:38;;;;;;;10.67;5.33;;;;;;;0.58;100.00;95272.66;5029554;23;20229;-65
2021/12/15 09:24:06;;;;;;;10.93;5.67;;;;;;;0.55;100.00;95275.25;5013382;28;20190;-66
2021/12/15 09:26:33;;;;;;;12.07;6.00;;;;;;;0.61;100.00;95277.53;5013762;28;20294;-64
2021/12/15 09:28:59;;;;;;;10.00;6.60;;;;;;;0.61;100.00;95282.53;5013263;28;20228;-64
2021/12/15 09:31:26;;;;;;;10.40;5.30;;;;;;;0.60;100.00;95278.44;5013233;28;20698;-65
2021/12/15 09:33:54;;;;;;;11.50;6.63;;;;;;;0.67;100.00;95274.81;5013415;28;20190;-66
2021/12/15 09:36:21;;;;;;;9.07;5.23;;;;;;;0.58;100.00;95268.47;5012980;28;20759;-64
2021/12/15 09:38:51;;;;;;;11.93;6.30;;;;;;;0.65;100.00;95271.56;5013145;28;20268;-65
2021/12/15 09:41:19;;;;;;;11.13;6.03;;;;;;;0.64;100.00;95274.94;5012033;28;20225;-62
2021/12/15 09:43:47;;;;;;;9.50;5.43;;;;;;;0.61;100.00;95282.53;5012842;28;20184;-61
2021/12/15 09:46:24;;;;;;;11.90;5.70;;;;;;;0.61;100.00;95265.03;5011838;28;20221;-64
2021/12/15 10:19:19;;;;;;;12.50;6.87;;;;;;;0.74;100.00;95263.72;5012663;28;20227;-64
2021/12/15 10:22:08;;;;;;;11.50;7.23;;;;;;;0.74;100.00;95256.22;5012543;28;20214;-65
2021/12/15 10:24:45;;;;;;;10.67;6.87;;;;;;;0.73;100.00;95249.56;5010991;28;20184;-62
2021/12/15 10:27:13;;;;;;;14.77;7.17;;;;;;;0.80;100.00;95249.31;5012540;28;20202;-65
2021/12/15 10:30:09;;;;;;;13.50;7.40;;;;;;;0.83;100.00;95259.19;5012530;28;20198;-64
2021/12/15 10:32:38;;;;;;;10.83;6.53;;;;;;;0.92;100.00;95239.69;5012586;28;20199;-66
2021/12/15 10:35:10;;;;;;;14.43;7.00;;;;;;;0.85;100.00;95244.94;5019519;22;20195;-64
2021/12/15 10:37:36;;;;;;;12.77;7.53;;;;;;;0.92;100.00;95248.03;5011680;28;20215;-62
2021/12/15 10:40:15;;;;;;;13.83;7.43;;;;;;;0.96;100.00;95254.53;5011994;28;20177;-62
2021/12/15 10:42:42;;;;;;;14.50;8.93;;;;;;;0.87;100.00;95247.38;5011995;28;20188;-65
2021/12/15 10:45:10;;;;;;;19.50;7.40;;;;;;;0.84;100.00;95248.31;5011970;28;20653;-63
2021/12/15 10:47:51;;;;;;;12.23;7.10;;;;;;;0.81;100.00;95240.09;5011974;28;20222;-64
2021/12/15 10:50:22;;;;;;;14.47;7.47;;;;;;;0.96;100.00;95246.22;5012475;28;20294;-61
2021/12/15 10:52:55;;;;;;;13.17;6.93;;;;;;;1.02;100.00;95250.97;5012246;28;20175;-64
2021/12/15 10:55:29;;;;;;;13.30;8.07;;;;;;;1.11;100.00;95250.66;5011908;28;20555;-64
2021/12/15 10:57:54;;;;;;;10.67;6.70;;;;;;;1.05;100.00;95255.88;5012169;28;20175;-62
2021/12/15 11:00:20;;;;;;;10.60;6.33;;;;;;;1.04;100.00;95247.56;5012022;28;20186;-64
2021/12/15 11:02:47;;;;;;;15.70;7.80;;;;;;;0.93;100.00;95252.13;5012169;28;20194;-64
2021/12/15 11:05:15;;;;;;;11.27;7.43;;;;;;;0.96;100.00;95238.69;5011958;28;20183;-64
2021/12/15 11:07:55;;;;;;;12.63;6.93;;;;;;;1.00;100.00;95248.53;5011934;28;20210;-62
2021/12/15 11:10:28;;;;;;;11.73;7.00;;;;;;;0.99;100.00;95246.91;5011797;28;20196;-63
2021/12/15 11:13:10;;;;;;;13.87;7.03;;;;;;;0.86;100.00;95233.25;5011907;28;20183;-64
2021/12/15 11:15:46;;;;;;;13.87;8.63;;;;;;;1.02;100.00;95228.47;5011695;28;20296;-65
2021/12/15 11:18:17;;;;;;;18.87;9.33;;;;;;;1.06;100.00;95238.31;5011830;28;20186;-64
2021/12/15 11:20:54;;;;;;;15.90;8.53;;;;;;;1.11;100.00;95233.91;5012033;28;20230;-65
2021/12/15 11:23:25;;;;;;;14.73;8.07;;;;;;;1.07;100.00;95231.63;5011790;28;20178;-63
2021/12/15 11:25:50;;;;;;;15.30;7.90;;;;;;;1.03;100.00;95223.38;5012000;28;20218;-62
2021/12/15 11:28:24;;;;;;;15.07;8.50;;;;;;;1.12;100.00;95219.72;5011888;28;20257;-66
2021/12/15 11:31:11;;;;;;;13.47;8.23;;;;;;;0.95;100.00;95182.03;5012022;28;20229;-62
2021/12/15 11:33:45;;;;;;;12.10;8.20;;;;;;;1.08;100.00;95225.72;5019602;22;20602;-64
2021/12/15 11:36:21;;;;;;;13.17;7.50;;;;;;;1.16;100.00;95228.72;5011751;28;20697;-65
2021/12/15 11:39:00;;;;;;;13.33;8.67;;;;;;;1.17;100.00;95235.38;5011833;28;20229;-66
2021/12/15 11:41:31;;;;;;;17.07;9.23;;;;;;;1.16;100.00;95224.56;5011766;28;20294;-64
2021/12/15 11:44:03;;;;;;;15.40;9.17;;;;;;;1.25;100.00;95215.88;5011705;28;20178;-67
2021/12/15 11:46:54;;;;;;;16.77;8.70;;;;;;;1.31;100.00;95228.97;5011671;28;20211;-63
2021/12/15 11:49:23;;;;;;;14.70;9.17;;;;;;;1.28;100.00;95230.75;5011685;28;20210;-62
2021/12/15 11:51:52;;;;;;;16.63;8.80;;;;;;;1.38;100.00;95227.00;5011482;28;20309;-66
2021/12/15 11:54:44;;;;;;;14.27;8.00;;;;;;;1.42;100.00;95231.03;5011687;28;20183;-64
2021/12/15 11:57:22;;;;;;;16.53;8.73;;;;;;;1.33;100.00;95227.22;5007152;28;20281;-66
2021/12/15 11:59:50;;;;;;;14.67;8.30;;;;;;;1.37;100.00;95233.72;5011529;28;20719;-65
2021/12/15 12:02:29;;;;;;;15.67;8.77;;;;;;;1.37;100.00;95226.22;5011742;28;20290;-66
2021/12/15 12:05:00;;;;;;;12.97;8.07;;;;;;;1.59;100.00;95233.66;5010231;28;20645;-62
2021/12/15 12:07:52;;;;;;;15.77;9.07;;;;;;;1.78;100.00;95243.75;5013803;28;20561;-63
2021/12/15 12:10:32;;;;;;;16.87;9.40;;;;;;;1.55;100.00;95243.00;5015154;28;20218;-67
2021/12/15 12:13:08;;;;;;;17.37;9.37;;;;;;;1.45;100.00;95233.41;5015449;28;20684;-65
2021/12/15 12:15:42;;;;;;;17.60;9.57;;;;;;;1.38;100.00;95227.84;5014897;28;20657;-67
2021/12/15 12:18:12;;;;;;;16.67;9.27;;;;;;;1.40;100.00;95231.09;5015330;28;20199;-65
2021/12/15 12:20:40;;;;;;;14.53;8.27;;;;;;;1.32;100.00;95230.56;5014753;28;20706;-66
2021/12/15 12:23:10;;;;;;;12.30;8.50;;;;;;;1.20;100.00;95216.03;5014654;28;20279;-65
2021/12/15 12:25:42;;;;;;;17.23;9.30;;;;;;;1.18;100.00;95222.81;5013124;28;20268;-65
2021/12/15 12:28:16;;;;;;;11.43;8.10;;;;;;;1.14;100.00;95223.78;5015155;28;20217;-64
2021/12/15 12:30:54;;;;;;;11.27;7.13;;;;;;;1.06;100.00;95220.78;5014743;28;20199;-64
2021/12/15 12:33:22;;;;;;;17.97;8.47;;;;;;;0.98;100.00;95220.25;5015283;28;20191;-64
2021/12/15 12:35:49;;;;;;;15.67;7.93;;;;;;;0.99;100.00;95219.38;5014395;28;20197;-65
2021/12/15 12:38:21;;;;;;;12.90;8.33;;;;;;;1.03;100.00;95213.38;5014951;28;20563;-66
2021/12/15 12:40:55;;;;;;;19.17;9.03;;;;;;;0.98;100.00;95219.44;5014530;28;20226;-65
2021/12/15 12:43:31;;;;;;;14.33;9.30;;;;;;;1.08;100.00;95215.69;5014969;28;20190;-62
2021/12/15 12:46:09;;;;;;;15.17;9.87;;;;;;;1.06;100.00;95218.28;5013057;28;20206;-63